Terminal Aerodrome Forecast
Issued by NWS

Home | Current Version | Previous Version | Text Only | Print | Product List | Glossary Off
Versions: 1 2 3 4 5 6 7 8 9 10 11 12 13 14 15 16 17 18

000
FTUS43 KTOP 022331
TAFFOE
TAF
KFOE 022331Z 0300/0324 10006KT P6SM VCTS SCT025 BKN030CB
     FM030500 VRB02KT 4SM BR BKN015
     FM031400 01005KT P6SM BKN015
     FM031900 03006KT P6SM BKN050=

USA.gov is the U.S. government's official web portal to all federal, state and local government web resources and services.